createdAt,value
2023-01-29T00:09:47.541Z,0.74
2023-01-29T00:38:53.939Z,1.13
2023-01-29T01:07:45.064Z,0.88
2023-01-29T01:36:32.344Z,0.84
2023-01-29T02:05:27.187Z,0.8
2023-01-29T02:34:18.732Z,0.6
2023-01-29T03:03:22.292Z,0.62
2023-01-29T03:32:23.420Z,0.74
2023-01-29T04:01:06.519Z,0.42
2023-01-29T04:29:58.896Z,0.28
2023-01-29T04:58:58.248Z,0.43
2023-01-29T05:27:56.220Z,0.45
2023-01-29T05:56:47.507Z,-0.02
2023-01-29T06:25:43.565Z,0.12
2023-01-29T06:54:41.351Z,-0.02
2023-01-29T07:23:38.600Z,-0.09
2023-01-29T07:52:45.799Z,0.4
2023-01-29T08:21:43.965Z,0.64
2023-01-29T08:50:42.113Z,0.62
2023-01-29T09:19:43.168Z,1.19
2023-01-29T09:48:44.638Z,1.83
2023-01-29T10:17:39.136Z,1.82
2023-01-29T10:46:33.072Z,2.61
2023-01-29T11:15:26.613Z,3.44
2023-01-29T11:44:32.611Z,3.79
2023-01-29T12:13:19.237Z,3.95
2023-01-29T12:41:31.152Z,3.47
2023-01-29T13:09:45.662Z,3.56
2023-01-29T13:37:59.034Z,3.51
2023-01-29T14:06:12.936Z,3.79
2023-01-29T14:34:23.235Z,3.54
2023-01-29T15:02:39.955Z,2.91
2023-01-29T15:30:57.530Z,2.59
2023-01-29T15:59:13.563Z,2.27
2023-01-29T16:27:39.893Z,2
2023-01-29T16:56:08.664Z,1.96
2023-01-29T17:24:16.107Z,1.24
2023-01-29T17:52:34.618Z,0.8
2023-01-29T18:20:53.265Z,0.21
2023-01-29T18:49:03.537Z,-0.05
2023-01-29T19:17:28.994Z,-0.06
2023-01-29T19:45:50.857Z,-0.01
2023-01-29T20:13:55.484Z,-0.17
2023-01-29T20:42:14.868Z,-0.43
2023-01-29T21:11:14.222Z,-0.59
2023-01-29T21:39:50.579Z,-0.49
2023-01-29T22:08:45.341Z,-0.33
2023-01-29T22:37:27.317Z,-0.51
2023-01-29T23:06:04.690Z,-1.13
2023-01-29T23:34:54.817Z,-0.98
